메인 페이지
METAR-TAF:

METAR-TAF

공항 :

아타카마 사막, 칠레

위도: 27-15-40S, 경도: 70-46-45W, 고도: 204m

현재 날씨관측

예보는 2 시간 48분 전, 22:00시(UTC)에 발표되었습니다.
북북서13kt
온도 17°C
습도 82%
기압 1011 hPa
시정 10km 이상
1500m 미만 상공 구름 및 적란운 없음

METAR: SCAT 172200Z 34013KT CAVOK 17/14 Q1011

시각: 20:48 (00:48 UTC)

예보

예보는 8 시간 5분 전, 16:43시(UTC)에 발표되었습니다.
예보 대상 시간: 17일 18시부터 18일 18시까지 (UTC)
18kt
시정 10km 이상
1500m 미만 상공 구름 및 적란운 없음
전환 중
18일 00시부터 18일 02시까지 (UTC)
7kt
시정: 2500m
고도 300ft 상공 흐림
박무
전환 중
18일 08시부터 18일 10시까지 (UTC)
시정 10km 이상
고도 500ft 상공 흐림
전환 중
18일 13시부터 18일 15시까지 (UTC)
고도 1200ft 상공 구름 많음
전환 중
18일 16시부터 18일 18시까지 (UTC)
북서12kt
시정 10km 이상
1500m 미만 상공 구름 및 적란운 없음

TAF: SCAT 171643Z 1718/1818 36018KT CAVOK TX25/1718Z TN12/1810Z BECMG 1800/1802 36007KT 2500 BR OVC003 BECMG 1808/1810 9999 OVC005 BECMG 1813/1815 BKN012 BECMG 1816/1818 31012KT CAVOK

4,000개 이상의 공항 관측 자료 및 예보 (METAR 및 TAF 보고).

지도상에서 검색 가능한 기상관측소가 노란 점과 빨간 점으로 표시되어 있습니다.

기상관측소 명을 보려면 표시 위로 마우스를 이동하세요.

날씨 관측과 예보를 보려면 클릭하세요.

지도 변경 : 확대하려면 엑스 표시가 있는 녹색 버튼, 축소하려면 빼기 표시가 있는 녹색 버튼, 다음 페이지의 지도를 보려면 녹색 화살표를 클릭하세요.


METAR-TAF: